sensor_id;sensor_type;location;lat;lon;timestamp;P1;P2;P0
65973;PMS5003;52729;54.906;73.316;2022-08-19T00:02:59;0.00;0.00;0.00
65973;PMS5003;52729;54.906;73.316;2022-08-19T00:06:01;0.00;0.00;0.00
65973;PMS5003;52729;54.906;73.316;2022-08-19T00:09:23;0.00;0.00;0.00
65973;PMS5003;52729;54.906;73.316;2022-08-19T00:12:24;0.00;0.00;0.00
65973;PMS5003;52729;54.906;73.316;2022-08-19T00:15:35;0.00;0.00;0.00
65973;PMS5003;52729;54.906;73.316;2022-08-19T00:18:36;0.00;0.00;0.00
65973;PMS5003;52729;54.906;73.316;2022-08-19T00:21:43;0.00;0.00;0.00
65973;PMS5003;52729;54.906;73.316;2022-08-19T00:24:44;0.00;0.00;0.00
65973;PMS5003;52729;54.906;73.316;2022-08-19T00:27:45;0.00;0.00;0.00
65973;PMS5003;52729;54.906;73.316;2022-08-19T00:30:53;0.00;0.00;0.00
65973;PMS5003;52729;54.906;73.316;2022-08-19T00:34:05;0.00;0.00;0.00
65973;PMS5003;52729;54.906;73.316;2022-08-19T00:37:06;0.00;0.00;0.00
65973;PMS5003;52729;54.906;73.316;2022-08-19T00:40:07;0.00;0.00;0.00
65973;PMS5003;52729;54.906;73.316;2022-08-19T00:43:14;0.00;0.00;0.00
65973;PMS5003;52729;54.906;73.316;2022-08-19T00:46:18;0.00;0.00;0.00
65973;PMS5003;52729;54.906;73.316;2022-08-19T00:49:32;0.00;0.00;0.00
65973;PMS5003;52729;54.906;73.316;2022-08-19T00:52:37;0.00;0.00;0.00
65973;PMS5003;52729;54.906;73.316;2022-08-19T00:55:46;0.00;0.00;0.00
65973;PMS5003;52729;54.906;73.316;2022-08-19T00:58:58;0.00;0.00;0.00
65973;PMS5003;52729;54.906;73.316;2022-08-19T01:02:00;0.75;0.00;0.00
65973;PMS5003;52729;54.906;73.316;2022-08-19T01:05:02;0.00;0.00;0.00
65973;PMS5003;52729;54.906;73.316;2022-08-19T01:08:05;0.00;0.00;0.00
65973;PMS5003;52729;54.906;73.316;2022-08-19T01:11:06;0.00;0.00;0.00
65973;PMS5003;52729;54.906;73.316;2022-08-19T01:14:11;0.00;0.00;0.00
65973;PMS5003;52729;54.906;73.316;2022-08-19T01:17:12;0.00;0.00;0.00
65973;PMS5003;52729;54.906;73.316;2022-08-19T01:20:17;0.00;0.00;0.00
65973;PMS5003;52729;54.906;73.316;2022-08-19T01:23:25;0.00;0.00;0.00
65973;PMS5003;52729;54.906;73.316;2022-08-19T01:26:43;0.00;0.00;0.00
65973;PMS5003;52729;54.906;73.316;2022-08-19T01:29:45;0.00;0.00;0.00
65973;PMS5003;52729;54.906;73.316;2022-08-19T01:32:46;0.00;0.00;0.00
65973;PMS5003;52729;54.906;73.316;2022-08-19T01:35:47;0.00;0.00;0.00
65973;PMS5003;52729;54.906;73.316;2022-08-19T01:39:04;0.00;0.00;0.00
65973;PMS5003;52729;54.906;73.316;2022-08-19T01:42:06;0.00;0.00;0.00
65973;PMS5003;52729;54.906;73.316;2022-08-19T01:45:09;0.00;0.00;0.00
65973;PMS5003;52729;54.906;73.316;2022-08-19T01:48:10;0.00;0.00;0.00
65973;PMS5003;52729;54.906;73.316;2022-08-19T01:51:16;0.00;0.00;0.00
65973;PMS5003;52729;54.906;73.316;2022-08-19T01:54:23;0.00;0.00;0.00
65973;PMS5003;52729;54.906;73.316;2022-08-19T01:57:25;0.00;0.00;0.00
65973;PMS5003;52729;54.906;73.316;2022-08-19T02:00:32;0.00;0.00;0.00
65973;PMS5003;52729;54.906;73.316;2022-08-19T02:03:33;0.00;0.00;0.00
65973;PMS5003;52729;54.906;73.316;2022-08-19T02:06:35;0.00;0.00;0.00
65973;PMS5003;52729;54.906;73.316;2022-08-19T02:09:36;0.00;0.00;0.00
65973;PMS5003;52729;54.906;73.316;2022-08-19T02:12:37;0.00;0.00;0.00
65973;PMS5003;52729;54.906;73.316;2022-08-19T02:15:38;0.00;0.00;0.00
65973;PMS5003;52729;54.906;73.316;2022-08-19T02:18:50;0.00;0.00;0.00
65973;PMS5003;52729;54.906;73.316;2022-08-19T02:21:51;2.00;0.75;0.00
65973;PMS5003;52729;54.906;73.316;2022-08-19T02:24:53;1.00;1.00;0.00
65973;PMS5003;52729;54.906;73.316;2022-08-19T02:27:59;1.00;1.00;0.00
65973;PMS5003;52729;54.906;73.316;2022-08-19T02:31:12;0.00;0.00;0.00
65973;PMS5003;52729;54.906;73.316;2022-08-19T02:34:16;0.00;0.00;0.00
65973;PMS5003;52729;54.906;73.316;2022-08-19T02:37:17;0.00;0.00;0.00
65973;PMS5003;52729;54.906;73.316;2022-08-19T02:40:50;0.00;0.00;0.00
65973;PMS5003;52729;54.906;73.316;2022-08-19T02:44:21;0.00;0.00;0.00
65973;PMS5003;52729;54.906;73.316;2022-08-19T02:47:22;0.00;0.00;0.00
65973;PMS5003;52729;54.906;73.316;2022-08-19T02:50:23;0.00;0.00;0.00
65973;PMS5003;52729;54.906;73.316;2022-08-19T02:53:26;0.00;0.00;0.00
65973;PMS5003;52729;54.906;73.316;2022-08-19T02:56:31;0.00;0.00;0.00
65973;PMS5003;52729;54.906;73.316;2022-08-19T02:59:38;0.00;0.00;0.00
65973;PMS5003;52729;54.906;73.316;2022-08-19T03:02:45;0.00;0.00;0.00
65973;PMS5003;52729;54.906;73.316;2022-08-19T03:06:02;0.00;0.00;0.00
65973;PMS5003;52729;54.906;73.316;2022-08-19T03:09:04;0.00;0.00;0.00
65973;PMS5003;52729;54.906;73.316;2022-08-19T03:12:05;1.00;1.00;0.00
65973;PMS5003;52729;54.906;73.316;2022-08-19T03:15:07;1.00;1.00;0.00
65973;PMS5003;52729;54.906;73.316;2022-08-19T03:18:09;0.00;0.00;0.00
65973;PMS5003;52729;54.906;73.316;2022-08-19T03:21:14;0.00;0.00;0.00
65973;PMS5003;52729;54.906;73.316;2022-08-19T03:24:15;0.00;0.00;0.00
65973;PMS5003;52729;54.906;73.316;2022-08-19T03:27:27;0.00;0.00;0.00
65973;PMS5003;52729;54.906;73.316;2022-08-19T03:30:29;1.00;0.00;0.00
65973;PMS5003;52729;54.906;73.316;2022-08-19T03:33:31;1.00;1.00;0.00
65973;PMS5003;52729;54.906;73.316;2022-08-19T03:36:32;3.50;2.50;0.00
65973;PMS5003;52729;54.906;73.316;2022-08-19T03:39:35;4.00;4.00;1.00
65973;PMS5003;52729;54.906;73.316;2022-08-19T03:42:41;4.00;4.00;0.75
65973;PMS5003;52729;54.906;73.316;2022-08-19T03:45:42;3.75;3.25;1.50
65973;PMS5003;52729;54.906;73.316;2022-08-19T03:48:44;2.75;2.25;0.25
65973;PMS5003;52729;54.906;73.316;2022-08-19T03:51:46;5.00;4.50;0.00
65973;PMS5003;52729;54.906;73.316;2022-08-19T03:54:47;3.50;3.50;0.00
65973;PMS5003;52729;54.906;73.316;2022-08-19T03:57:48;1.50;1.50;0.00
65973;PMS5003;52729;54.906;73.316;2022-08-19T04:00:55;3.00;3.00;0.00
65973;PMS5003;52729;54.906;73.316;2022-08-19T04:03:56;3.00;3.00;0.00
65973;PMS5003;52729;54.906;73.316;2022-08-19T04:06:58;2.75;2.25;0.00
65973;PMS5003;52729;54.906;73.316;2022-08-19T04:09:59;2.50;2.50;0.00
65973;PMS5003;52729;54.906;73.316;2022-08-19T04:13:00;2.00;1.00;0.00
65973;PMS5003;52729;54.906;73.316;2022-08-19T04:16:02;1.00;1.00;0.00
65973;PMS5003;52729;54.906;73.316;2022-08-19T04:19:05;3.00;2.00;0.00
65973;PMS5003;52729;54.906;73.316;2022-08-19T04:22:06;3.00;3.00;0.00
65973;PMS5003;52729;54.906;73.316;2022-08-19T04:25:17;3.00;2.25;0.00
65973;PMS5003;52729;54.906;73.316;2022-08-19T04:28:26;1.00;1.00;0.00
65973;PMS5003;52729;54.906;73.316;2022-08-19T04:31:28;0.00;0.00;0.00
65973;PMS5003;52729;54.906;73.316;2022-08-19T04:34:29;0.00;0.00;0.00
65973;PMS5003;52729;54.906;73.316;2022-08-19T04:37:30;0.00;0.00;0.00
65973;PMS5003;52729;54.906;73.316;2022-08-19T04:40:39;0.00;0.00;0.00
65973;PMS5003;52729;54.906;73.316;2022-08-19T04:43:59;0.00;0.00;0.00
65973;PMS5003;52729;54.906;73.316;2022-08-19T04:47:00;0.00;0.00;0.00
65973;PMS5003;52729;54.906;73.316;2022-08-19T04:50:02;0.00;0.00;0.00
65973;PMS5003;52729;54.906;73.316;2022-08-19T04:53:03;0.00;0.00;0.00
65973;PMS5003;52729;54.906;73.316;2022-08-19T04:56:15;0.00;0.00;0.00
65973;PMS5003;52729;54.906;73.316;2022-08-19T04:59:18;0.00;0.00;0.00
65973;PMS5003;52729;54.906;73.316;2022-08-19T05:02:20;0.00;0.00;0.00
65973;PMS5003;52729;54.906;73.316;2022-08-19T05:05:25;0.00;0.00;0.00
65973;PMS5003;52729;54.906;73.316;2022-08-19T05:08:26;0.00;0.00;0.00
65973;PMS5003;52729;54.906;73.316;2022-08-19T05:11:31;0.00;0.00;0.00
65973;PMS5003;52729;54.906;73.316;2022-08-19T05:14:32;0.00;0.00;0.00
65973;PMS5003;52729;54.906;73.316;2022-08-19T05:17:34;0.00;0.00;0.00
65973;PMS5003;52729;54.906;73.316;2022-08-19T05:20:40;0.00;0.00;0.00
65973;PMS5003;52729;54.906;73.316;2022-08-19T05:24:03;0.00;0.00;0.00
65973;PMS5003;52729;54.906;73.316;2022-08-19T05:27:08;0.00;0.00;0.00
65973;PMS5003;52729;54.906;73.316;2022-08-19T05:30:10;0.00;0.00;0.00
65973;PMS5003;52729;54.906;73.316;2022-08-19T05:33:21;0.00;0.00;0.00
65973;PMS5003;52729;54.906;73.316;2022-08-19T05:36:24;1.00;1.00;0.00
65973;PMS5003;52729;54.906;73.316;2022-08-19T05:39:36;0.00;0.00;0.00
65973;PMS5003;52729;54.906;73.316;2022-08-19T05:42:38;0.00;0.00;0.00
65973;PMS5003;52729;54.906;73.316;2022-08-19T05:45:39;0.00;0.00;0.00
65973;PMS5003;52729;54.906;73.316;2022-08-19T05:48:42;0.00;0.00;0.00
65973;PMS5003;52729;54.906;73.316;2022-08-19T05:51:43;0.00;0.00;0.00
65973;PMS5003;52729;54.906;73.316;2022-08-19T05:54:44;0.00;0.00;0.00
65973;PMS5003;52729;54.906;73.316;2022-08-19T05:57:48;0.00;0.00;0.00
65973;PMS5003;52729;54.906;73.316;2022-08-19T06:00:49;0.00;0.00;0.00
65973;PMS5003;52729;54.906;73.316;2022-08-19T06:04:01;0.00;0.00;0.00
65973;PMS5003;52729;54.906;73.316;2022-08-19T06:07:03;0.00;0.00;0.00
65973;PMS5003;52729;54.906;73.316;2022-08-19T06:10:06;0.00;0.00;0.00
65973;PMS5003;52729;54.906;73.316;2022-08-19T06:13:07;0.00;0.00;0.00
65973;PMS5003;52729;54.906;73.316;2022-08-19T06:16:09;0.00;0.00;0.00
65973;PMS5003;52729;54.906;73.316;2022-08-19T06:19:20;0.00;0.00;0.00
65973;PMS5003;52729;54.906;73.316;2022-08-19T06:22:30;0.00;0.00;0.00
65973;PMS5003;52729;54.906;73.316;2022-08-19T06:25:31;0.00;0.00;0.00
65973;PMS5003;52729;54.906;73.316;2022-08-19T06:28:32;0.00;0.00;0.00
65973;PMS5003;52729;54.906;73.316;2022-08-19T06:31:41;0.00;0.00;0.00
65973;PMS5003;52729;54.906;73.316;2022-08-19T06:34:42;0.00;0.00;0.00
65973;PMS5003;52729;54.906;73.316;2022-08-19T06:37:43;3.00;3.00;0.00
65973;PMS5003;52729;54.906;73.316;2022-08-19T06:40:45;2.00;2.00;0.00
65973;PMS5003;52729;54.906;73.316;2022-08-19T06:43:51;0.00;0.00;0.00
65973;PMS5003;52729;54.906;73.316;2022-08-19T06:46:57;0.00;0.00;0.00
65973;PMS5003;52729;54.906;73.316;2022-08-19T06:50:01;0.00;0.00;0.00
65973;PMS5003;52729;54.906;73.316;2022-08-19T06:53:03;0.00;0.00;0.00
65973;PMS5003;52729;54.906;73.316;2022-08-19T06:56:06;0.00;0.00;0.00
65973;PMS5003;52729;54.906;73.316;2022-08-19T06:59:08;0.00;0.00;0.00
65973;PMS5003;52729;54.906;73.316;2022-08-19T07:02:10;0.00;0.00;0.00
65973;PMS5003;52729;54.906;73.316;2022-08-19T07:05:11;0.00;0.00;0.00
65973;PMS5003;52729;54.906;73.316;2022-08-19T07:08:12;0.00;0.00;0.00
65973;PMS5003;52729;54.906;73.316;2022-08-19T07:11:18;0.00;0.00;0.00
65973;PMS5003;52729;54.906;73.316;2022-08-19T07:14:25;0.00;0.00;0.00
65973;PMS5003;52729;54.906;73.316;2022-08-19T07:17:27;0.00;0.00;0.00
65973;PMS5003;52729;54.906;73.316;2022-08-19T07:20:28;0.25;0.00;0.00
65973;PMS5003;52729;54.906;73.316;2022-08-19T07:23:35;0.00;0.00;0.00
65973;PMS5003;52729;54.906;73.316;2022-08-19T07:26:47;0.00;0.00;0.00
65973;PMS5003;52729;54.906;73.316;2022-08-19T07:29:48;0.00;0.00;0.00
65973;PMS5003;52729;54.906;73.316;2022-08-19T07:32:49;0.00;0.00;0.00
65973;PMS5003;52729;54.906;73.316;2022-08-19T07:35:58;0.00;0.00;0.00
65973;PMS5003;52729;54.906;73.316;2022-08-19T07:38:59;0.00;0.00;0.00
65973;PMS5003;52729;54.906;73.316;2022-08-19T07:42:04;0.00;0.00;0.00
65973;PMS5003;52729;54.906;73.316;2022-08-19T07:45:07;0.75;0.00;0.00
65973;PMS5003;52729;54.906;73.316;2022-08-19T07:48:08;1.75;1.00;0.00
65973;PMS5003;52729;54.906;73.316;2022-08-19T07:51:10;5.75;5.50;0.00
65973;PMS5003;52729;54.906;73.316;2022-08-19T07:54:22;6.00;5.00;1.00
65973;PMS5003;52729;54.906;73.316;2022-08-19T07:57:28;2.75;2.50;0.00
65973;PMS5003;52729;54.906;73.316;2022-08-19T08:00:29;1.00;1.00;0.00
65973;PMS5003;52729;54.906;73.316;2022-08-19T08:03:30;1.00;0.00;0.00
65973;PMS5003;52729;54.906;73.316;2022-08-19T08:06:55;0.00;0.00;0.00
65973;PMS5003;52729;54.906;73.316;2022-08-19T08:10:14;3.25;3.25;0.00
65973;PMS5003;52729;54.906;73.316;2022-08-19T08:13:16;1.00;1.00;0.00
65973;PMS5003;52729;54.906;73.316;2022-08-19T08:16:17;0.00;0.00;0.00
65973;PMS5003;52729;54.906;73.316;2022-08-19T08:19:18;1.00;1.00;0.00
65973;PMS5003;52729;54.906;73.316;2022-08-19T08:22:20;0.25;0.00;0.00
65973;PMS5003;52729;54.906;73.316;2022-08-19T08:25:40;4.25;4.00;0.00
65973;PMS5003;52729;54.906;73.316;2022-08-19T08:28:41;9.25;9.25;3.00
65973;PMS5003;52729;54.906;73.316;2022-08-19T08:31:43;8.00;8.00;3.50
65973;PMS5003;52729;54.906;73.316;2022-08-19T08:34:44;4.00;3.00;1.00
65973;PMS5003;52729;54.906;73.316;2022-08-19T08:37:45;4.00;3.00;1.00
65973;PMS5003;52729;54.906;73.316;2022-08-19T08:40:49;1.00;1.00;0.00
65973;PMS5003;52729;54.906;73.316;2022-08-19T08:43:52;2.00;1.00;0.00
65973;PMS5003;52729;54.906;73.316;2022-08-19T08:46:55;1.00;0.00;0.00
65973;PMS5003;52729;54.906;73.316;2022-08-19T08:50:00;0.00;0.00;0.00
65973;PMS5003;52729;54.906;73.316;2022-08-19T08:53:03;1.00;0.00;0.00
65973;PMS5003;52729;54.906;73.316;2022-08-19T08:56:06;1.50;1.50;0.00
65973;PMS5003;52729;54.906;73.316;2022-08-19T08:59:10;2.00;2.00;0.00
65973;PMS5003;52729;54.906;73.316;2022-08-19T09:02:13;1.00;1.00;0.00
65973;PMS5003;52729;54.906;73.316;2022-08-19T09:05:14;0.33;0.00;0.00
65973;PMS5003;52729;54.906;73.316;2022-08-19T09:08:33;0.00;0.00;0.00
65973;PMS5003;52729;54.906;73.316;2022-08-19T09:11:42;0.00;0.00;0.00
65973;PMS5003;52729;54.906;73.316;2022-08-19T09:17:52;1.00;0.00;0.00
65973;PMS5003;52729;54.906;73.316;2022-08-19T09:20:53;1.00;1.00;0.00
65973;PMS5003;52729;54.906;73.316;2022-08-19T09:23:54;0.00;0.00;0.00
65973;PMS5003;52729;54.906;73.316;2022-08-19T09:26:57;1.00;1.00;0.00
65973;PMS5003;52729;54.906;73.316;2022-08-19T09:29:58;1.00;1.00;0.00
65973;PMS5003;52729;54.906;73.316;2022-08-19T09:33:09;0.00;0.00;0.00
65973;PMS5003;52729;54.906;73.316;2022-08-19T09:36:17;0.00;0.00;0.00
65973;PMS5003;52729;54.906;73.316;2022-08-19T09:39:19;0.00;0.00;0.00
65973;PMS5003;52729;54.906;73.316;2022-08-19T09:42:20;0.25;0.00;0.00
65973;PMS5003;52729;54.906;73.316;2022-08-19T09:45:21;1.00;0.00;0.00
65973;PMS5003;52729;54.906;73.316;2022-08-19T09:48:22;1.00;0.00;0.00
65973;PMS5003;52729;54.906;73.316;2022-08-19T09:51:24;3.00;1.50;0.00
65973;PMS5003;52729;54.906;73.316;2022-08-19T09:54:31;2.25;2.00;0.00
65973;PMS5003;52729;54.906;73.316;2022-08-19T09:57:32;7.50;6.25;1.50
65973;PMS5003;52729;54.906;73.316;2022-08-19T10:00:41;6.00;5.00;1.75
65973;PMS5003;52729;54.906;73.316;2022-08-19T10:03:49;4.50;4.00;0.00
65973;PMS5003;52729;54.906;73.316;2022-08-19T10:06:55;6.00;6.00;0.00
65973;PMS5003;52729;54.906;73.316;2022-08-19T10:09:56;5.25;5.25;1.00
65973;PMS5003;52729;54.906;73.316;2022-08-19T10:12:58;5.00;4.50;1.00
65973;PMS5003;52729;54.906;73.316;2022-08-19T10:16:06;5.75;4.50;1.75
65973;PMS5003;52729;54.906;73.316;2022-08-19T10:19:13;6.25;5.25;0.00
65973;PMS5003;52729;54.906;73.316;2022-08-19T10:22:14;7.25;6.25;0.00
65973;PMS5003;52729;54.906;73.316;2022-08-19T10:25:26;10.00;8.00;3.00
65973;PMS5003;52729;54.906;73.316;2022-08-19T10:28:27;13.25;13.00;5.50
65973;PMS5003;52729;54.906;73.316;2022-08-19T10:31:36;9.00;8.25;3.00
65973;PMS5003;52729;54.906;73.316;2022-08-19T10:34:37;4.75;3.75;1.75
65973;PMS5003;52729;54.906;73.316;2022-08-19T10:37:39;1.50;1.25;0.00
65973;PMS5003;52729;54.906;73.316;2022-08-19T10:40:40;3.00;2.00;0.00
65973;PMS5003;52729;54.906;73.316;2022-08-19T10:43:41;7.00;5.67;0.00
65973;PMS5003;52729;54.906;73.316;2022-08-19T10:46:42;7.75;7.00;1.25
65973;PMS5003;52729;54.906;73.316;2022-08-19T10:49:48;10.00;10.00;2.50
65973;PMS5003;52729;54.906;73.316;2022-08-19T10:53:17;4.50;4.25;2.00
65973;PMS5003;52729;54.906;73.316;2022-08-19T10:56:20;7.00;6.50;1.00
65973;PMS5003;52729;54.906;73.316;2022-08-19T10:59:40;4.50;4.50;1.00
65973;PMS5003;52729;54.906;73.316;2022-08-19T11:02:41;4.00;2.50;1.00
65973;PMS5003;52729;54.906;73.316;2022-08-19T11:05:42;2.75;2.75;1.00
65973;PMS5003;52729;54.906;73.316;2022-08-19T11:08:43;3.00;2.00;0.00
65973;PMS5003;52729;54.906;73.316;2022-08-19T11:11:48;1.00;1.00;0.00
65973;PMS5003;52729;54.906;73.316;2022-08-19T11:14:49;7.00;6.00;0.00
65973;PMS5003;52729;54.906;73.316;2022-08-19T11:17:51;9.00;6.25;1.00
65973;PMS5003;52729;54.906;73.316;2022-08-19T11:20:54;6.00;6.00;3.00
65973;PMS5003;52729;54.906;73.316;2022-08-19T11:23:56;6.25;5.00;2.00
65973;PMS5003;52729;54.906;73.316;2022-08-19T11:27:06;3.50;3.50;1.00
65973;PMS5003;52729;54.906;73.316;2022-08-19T11:30:08;5.75;5.00;1.00
65973;PMS5003;52729;54.906;73.316;2022-08-19T11:33:09;5.00;5.00;1.00
65973;PMS5003;52729;54.906;73.316;2022-08-19T11:36:21;5.00;4.00;1.00
65973;PMS5003;52729;54.906;73.316;2022-08-19T11:39:22;4.00;3.00;1.00
65973;PMS5003;52729;54.906;73.316;2022-08-19T11:42:28;4.25;4.25;1.00
65973;PMS5003;52729;54.906;73.316;2022-08-19T11:45:48;7.00;5.75;1.00
65973;PMS5003;52729;54.906;73.316;2022-08-19T11:48:49;3.50;2.50;1.00
65973;PMS5003;52729;54.906;73.316;2022-08-19T11:51:51;5.75;4.50;0.50
65973;PMS5003;52729;54.906;73.316;2022-08-19T11:54:52;5.75;5.50;1.00
65973;PMS5003;52729;54.906;73.316;2022-08-19T11:57:53;5.00;4.75;1.75
65973;PMS5003;52729;54.906;73.316;2022-08-19T12:00:59;8.50;5.50;2.25
65973;PMS5003;52729;54.906;73.316;2022-08-19T12:04:00;15.00;13.00;8.50
65973;PMS5003;52729;54.906;73.316;2022-08-19T12:07:01;19.00;17.00;8.00
65973;PMS5003;52729;54.906;73.316;2022-08-19T12:10:03;19.00;16.00;7.00
65973;PMS5003;52729;54.906;73.316;2022-08-19T12:13:05;11.25;10.25;3.00
65973;PMS5003;52729;54.906;73.316;2022-08-19T12:16:08;5.00;5.00;1.00
65973;PMS5003;52729;54.906;73.316;2022-08-19T12:19:21;5.00;5.00;1.00
65973;PMS5003;52729;54.906;73.316;2022-08-19T12:22:22;18.50;17.00;8.50
65973;PMS5003;52729;54.906;73.316;2022-08-19T12:25:25;23.25;22.25;10.50
65973;PMS5003;52729;54.906;73.316;2022-08-19T12:28:36;27.00;23.00;12.00
65973;PMS5003;52729;54.906;73.316;2022-08-19T12:31:37;21.25;20.50;9.00
65973;PMS5003;52729;54.906;73.316;2022-08-19T12:34:38;20.75;18.25;7.00
65973;PMS5003;52729;54.906;73.316;2022-08-19T12:37:40;15.00;14.75;5.00
65973;PMS5003;52729;54.906;73.316;2022-08-19T12:40:46;11.75;10.00;4.00
65973;PMS5003;52729;54.906;73.316;2022-08-19T12:43:53;10.50;7.75;3.00
65973;PMS5003;52729;54.906;73.316;2022-08-19T12:46:54;16.50;15.00;7.25
65973;PMS5003;52729;54.906;73.316;2022-08-19T12:49:55;31.00;25.50;12.50
65973;PMS5003;52729;54.906;73.316;2022-08-19T12:52:57;34.00;29.00;15.00
65973;PMS5003;52729;54.906;73.316;2022-08-19T12:56:03;29.75;25.50;14.00
65973;PMS5003;52729;54.906;73.316;2022-08-19T12:59:04;24.50;20.00;10.00
65973;PMS5003;52729;54.906;73.316;2022-08-19T13:02:06;21.50;17.00;8.25
65973;PMS5003;52729;54.906;73.316;2022-08-19T13:05:22;16.25;15.00;5.00
65973;PMS5003;52729;54.906;73.316;2022-08-19T13:08:24;13.00;11.00;4.50
65973;PMS5003;52729;54.906;73.316;2022-08-19T13:11:25;13.00;12.00;5.75
65973;PMS5003;52729;54.906;73.316;2022-08-19T13:14:26;17.00;15.50;8.25
65973;PMS5003;52729;54.906;73.316;2022-08-19T13:17:27;17.25;14.50;6.25
65973;PMS5003;52729;54.906;73.316;2022-08-19T13:20:38;16.25;14.25;8.50
65973;PMS5003;52729;54.906;73.316;2022-08-19T13:23:41;18.50;17.50;10.00
65973;PMS5003;52729;54.906;73.316;2022-08-19T13:26:42;18.00;16.00;6.25
65973;PMS5003;52729;54.906;73.316;2022-08-19T13:29:43;13.00;11.75;3.00
65973;PMS5003;52729;54.906;73.316;2022-08-19T13:33:03;11.00;9.00;2.00
65973;PMS5003;52729;54.906;73.316;2022-08-19T13:36:16;4.00;2.00;0.00
65973;PMS5003;52729;54.906;73.316;2022-08-19T13:39:17;1.25;1.00;0.00
65973;PMS5003;52729;54.906;73.316;2022-08-19T13:42:18;0.00;0.00;0.00
65973;PMS5003;52729;54.906;73.316;2022-08-19T13:45:21;0.25;0.00;0.00
65973;PMS5003;52729;54.906;73.316;2022-08-19T13:48:22;2.00;1.00;0.00
65973;PMS5003;52729;54.906;73.316;2022-08-19T13:51:32;1.00;0.25;0.00
65973;PMS5003;52729;54.906;73.316;2022-08-19T13:54:37;5.50;5.50;0.00
65973;PMS5003;52729;54.906;73.316;2022-08-19T13:57:38;7.00;6.00;0.00
65973;PMS5003;52729;54.906;73.316;2022-08-19T14:00:41;5.00;5.00;1.00
65973;PMS5003;52729;54.906;73.316;2022-08-19T14:03:43;7.50;7.50;2.50
65973;PMS5003;52729;54.906;73.316;2022-08-19T14:06:45;8.75;8.50;4.00
65973;PMS5003;52729;54.906;73.316;2022-08-19T14:09:46;15.75;15.00;7.25
65973;PMS5003;52729;54.906;73.316;2022-08-19T14:12:54;14.00;12.00;5.00
65973;PMS5003;52729;54.906;73.316;2022-08-19T14:15:56;6.75;6.00;2.00
65973;PMS5003;52729;54.906;73.316;2022-08-19T14:19:05;7.50;7.25;1.00
65973;PMS5003;52729;54.906;73.316;2022-08-19T14:22:08;10.00;9.00;3.00
65973;PMS5003;52729;54.906;73.316;2022-08-19T14:25:16;9.75;9.75;2.75
65973;PMS5003;52729;54.906;73.316;2022-08-19T14:28:17;10.00;9.00;5.00
65973;PMS5003;52729;54.906;73.316;2022-08-19T14:31:19;9.00;9.00;5.00
65973;PMS5003;52729;54.906;73.316;2022-08-19T14:34:20;10.75;9.00;4.00
65973;PMS5003;52729;54.906;73.316;2022-08-19T14:37:22;10.00;9.50;4.00
65973;PMS5003;52729;54.906;73.316;2022-08-19T14:40:25;12.75;10.50;4.25
65973;PMS5003;52729;54.906;73.316;2022-08-19T14:43:37;13.00;10.00;5.00
65973;PMS5003;52729;54.906;73.316;2022-08-19T14:46:43;14.75;13.00;5.00
65973;PMS5003;52729;54.906;73.316;2022-08-19T14:49:45;15.00;14.00;5.00
65973;PMS5003;52729;54.906;73.316;2022-08-19T14:53:00;19.25;14.75;6.00
65973;PMS5003;52729;54.906;73.316;2022-08-19T14:56:06;16.25;13.50;6.25
65973;PMS5003;52729;54.906;73.316;2022-08-19T14:59:07;20.75;17.25;8.25
65973;PMS5003;52729;54.906;73.316;2022-08-19T15:02:09;17.00;16.00;7.00
65973;PMS5003;52729;54.906;73.316;2022-08-19T15:05:15;18.00;16.00;7.25
65973;PMS5003;52729;54.906;73.316;2022-08-19T15:08:22;16.75;14.00;5.00
65973;PMS5003;52729;54.906;73.316;2022-08-19T15:11:25;19.25;16.00;7.00
65973;PMS5003;52729;54.906;73.316;2022-08-19T15:14:28;20.00;18.00;8.00
65973;PMS5003;52729;54.906;73.316;2022-08-19T15:17:35;22.00;20.00;8.00
65973;PMS5003;52729;54.906;73.316;2022-08-19T15:20:42;18.00;17.00;7.00
65973;PMS5003;52729;54.906;73.316;2022-08-19T15:23:45;18.50;15.25;7.00
65973;PMS5003;52729;54.906;73.316;2022-08-19T15:26:46;19.00;17.00;6.00
65973;PMS5003;52729;54.906;73.316;2022-08-19T15:29:52;17.25;15.00;7.00
65973;PMS5003;52729;54.906;73.316;2022-08-19T15:33:04;18.00;17.00;8.00
65973;PMS5003;52729;54.906;73.316;2022-08-19T15:36:05;18.00;18.00;8.00
65973;PMS5003;52729;54.906;73.316;2022-08-19T15:39:06;21.25;21.00;10.00
65973;PMS5003;52729;54.906;73.316;2022-08-19T15:42:15;23.25;20.50;11.00
65973;PMS5003;52729;54.906;73.316;2022-08-19T15:45:16;25.75;24.25;11.75
65973;PMS5003;52729;54.906;73.316;2022-08-19T15:48:23;24.50;24.00;11.50
65973;PMS5003;52729;54.906;73.316;2022-08-19T15:51:24;25.00;23.00;12.50
65973;PMS5003;52729;54.906;73.316;2022-08-19T15:54:26;21.00;21.00;9.00
65973;PMS5003;52729;54.906;73.316;2022-08-19T15:57:27;18.00;18.00;7.50
65973;PMS5003;52729;54.906;73.316;2022-08-19T16:00:28;17.25;15.50;7.00
65973;PMS5003;52729;54.906;73.316;2022-08-19T16:03:48;18.25;17.00;8.00
65973;PMS5003;52729;54.906;73.316;2022-08-19T16:07:07;20.00;18.00;7.25
65973;PMS5003;52729;54.906;73.316;2022-08-19T16:10:09;18.00;16.00;5.00
65973;PMS5003;52729;54.906;73.316;2022-08-19T16:13:11;16.00;14.50;6.00
65973;PMS5003;52729;54.906;73.316;2022-08-19T16:16:23;18.50;14.00;5.25
65973;PMS5003;52729;54.906;73.316;2022-08-19T16:19:33;15.00;12.75;5.00
65973;PMS5003;52729;54.906;73.316;2022-08-19T16:22:34;11.33;11.00;4.67
65973;PMS5003;52729;54.906;73.316;2022-08-19T16:25:35;10.00;9.00;5.50
65973;PMS5003;52729;54.906;73.316;2022-08-19T16:28:46;9.00;8.00;3.25
65973;PMS5003;52729;54.906;73.316;2022-08-19T16:31:58;6.75;5.00;1.25
65973;PMS5003;52729;54.906;73.316;2022-08-19T16:35:01;7.00;5.00;2.00
65973;PMS5003;52729;54.906;73.316;2022-08-19T16:38:04;3.50;3.50;1.00
65973;PMS5003;52729;54.906;73.316;2022-08-19T16:41:17;6.25;5.75;1.00
65973;PMS5003;52729;54.906;73.316;2022-08-19T16:44:23;7.25;5.00;1.25
65973;PMS5003;52729;54.906;73.316;2022-08-19T16:47:24;9.50;7.25;1.50
65973;PMS5003;52729;54.906;73.316;2022-08-19T16:50:26;10.50;7.00;3.00
65973;PMS5003;52729;54.906;73.316;2022-08-19T16:53:27;9.25;7.50;2.25
65973;PMS5003;52729;54.906;73.316;2022-08-19T16:56:28;8.00;5.50;2.50
65973;PMS5003;52729;54.906;73.316;2022-08-19T16:59:30;11.00;7.50;3.00
65973;PMS5003;52729;54.906;73.316;2022-08-19T17:02:42;10.00;9.50;3.75
65973;PMS5003;52729;54.906;73.316;2022-08-19T17:05:50;26.75;22.75;12.25
65973;PMS5003;52729;54.906;73.316;2022-08-19T17:08:53;34.00;28.75;17.75
65973;PMS5003;52729;54.906;73.316;2022-08-19T17:11:54;33.25;28.00;16.75
65973;PMS5003;52729;54.906;73.316;2022-08-19T17:14:55;18.75;16.50;7.00
65973;PMS5003;52729;54.906;73.316;2022-08-19T17:17:59;14.75;9.75;3.00
65973;PMS5003;52729;54.906;73.316;2022-08-19T17:21:01;10.00;7.00;2.50
65973;PMS5003;52729;54.906;73.316;2022-08-19T17:24:03;7.75;5.75;2.00
65973;PMS5003;52729;54.906;73.316;2022-08-19T17:27:05;6.00;3.00;1.00
65973;PMS5003;52729;54.906;73.316;2022-08-19T17:30:06;7.00;5.75;2.75
65973;PMS5003;52729;54.906;73.316;2022-08-19T17:33:08;5.00;4.00;1.00
65973;PMS5003;52729;54.906;73.316;2022-08-19T17:36:09;5.50;5.00;0.00
65973;PMS5003;52729;54.906;73.316;2022-08-19T17:39:10;4.00;4.00;0.00
65973;PMS5003;52729;54.906;73.316;2022-08-19T17:42:11;7.00;4.67;0.00